Terminal Aerodrome Forecast
Issued by NWS Newport/Morehead City, NC

Home | Current Version | Previous Version | Graphics & Text | Print | Product List | Glossary On
Versions: 1 2 3 4 5 6 7 8 9 10 11 12 13 14 15 16 17 18 19
000
FTUS42 KMHX 221117 AAA
TAFEWN
TAF AMD
KEWN 221117Z 2211/2306 23005KT P6SM BKN015
     FM221300 24005KT 4SM -SHRA BR BKN015
     FM221700 19006KT P6SM BKN012
     FM230000 16006KT 3SM SHRA BR VCTS OVC025CB=

USA.gov is the U.S. government's official web portal to all federal, state and local government web resources and services.